sensor_id;sensor_type;location;lat;lon;timestamp;P1;durP1;ratioP1;P2;durP2;ratioP2
65130;SDS011;51709;54.912;8.316;2023-07-13T00:01:54;14.20;;;4.17;;
65130;SDS011;51709;54.912;8.316;2023-07-13T00:07:15;15.63;;;5.30;;
65130;SDS011;51709;54.912;8.316;2023-07-13T00:12:39;20.67;;;4.13;;
65130;SDS011;51709;54.912;8.316;2023-07-13T00:18:03;17.60;;;2.80;;
65130;SDS011;51709;54.912;8.316;2023-07-13T00:23:24;29.67;;;4.45;;
65130;SDS011;51709;54.912;8.316;2023-07-13T00:28:44;12.93;;;3.33;;
65130;SDS011;51709;54.912;8.316;2023-07-13T00:34:05;15.02;;;4.07;;
65130;SDS011;51709;54.912;8.316;2023-07-13T00:39:27;22.38;;;6.25;;
65130;SDS011;51709;54.912;8.316;2023-07-13T00:45:00;14.27;;;3.90;;
65130;SDS011;51709;54.912;8.316;2023-07-13T00:50:25;19.20;;;3.65;;
65130;SDS011;51709;54.912;8.316;2023-07-13T00:55:47;17.65;;;3.78;;
65130;SDS011;51709;54.912;8.316;2023-07-13T01:01:10;14.60;;;4.20;;
65130;SDS011;51709;54.912;8.316;2023-07-13T01:06:34;18.47;;;4.10;;
65130;SDS011;51709;54.912;8.316;2023-07-13T01:11:56;15.82;;;3.75;;
65130;SDS011;51709;54.912;8.316;2023-07-13T01:17:17;13.95;;;3.55;;
65130;SDS011;51709;54.912;8.316;2023-07-13T01:22:38;18.95;;;3.53;;
65130;SDS011;51709;54.912;8.316;2023-07-13T01:27:58;13.23;;;3.35;;
65130;SDS011;51709;54.912;8.316;2023-07-13T01:33:19;15.60;;;3.67;;
65130;SDS011;51709;54.912;8.316;2023-07-13T01:38:40;10.02;;;3.20;;
65130;SDS011;51709;54.912;8.316;2023-07-13T01:44:05;14.82;;;3.55;;
65130;SDS011;51709;54.912;8.316;2023-07-13T01:49:26;15.15;;;3.53;;
65130;SDS011;51709;54.912;8.316;2023-07-13T02:02:12;9.40;;;3.17;;
65130;SDS011;51709;54.912;8.316;2023-07-13T02:07:33;16.98;;;4.22;;
65130;SDS011;51709;54.912;8.316;2023-07-13T02:12:54;13.35;;;3.20;;
65130;SDS011;51709;54.912;8.316;2023-07-13T02:18:15;16.40;;;3.67;;
65130;SDS011;51709;54.912;8.316;2023-07-13T02:23:37;20.15;;;3.45;;
65130;SDS011;51709;54.912;8.316;2023-07-13T02:28:58;14.68;;;3.45;;
65130;SDS011;51709;54.912;8.316;2023-07-13T02:34:19;18.95;;;3.50;;
65130;SDS011;51709;54.912;8.316;2023-07-13T02:39:40;18.33;;;3.72;;
65130;SDS011;51709;54.912;8.316;2023-07-13T02:45:01;13.65;;;4.22;;
65130;SDS011;51709;54.912;8.316;2023-07-13T02:50:22;23.50;;;4.57;;
65130;SDS011;51709;54.912;8.316;2023-07-13T02:55:43;16.10;;;3.75;;
65130;SDS011;51709;54.912;8.316;2023-07-13T03:01:08;22.38;;;4.07;;
65130;SDS011;51709;54.912;8.316;2023-07-13T03:06:30;11.85;;;3.42;;
65130;SDS011;51709;54.912;8.316;2023-07-13T03:11:54;10.75;;;3.88;;
65130;SDS011;51709;54.912;8.316;2023-07-13T03:17:20;11.57;;;3.03;;
65130;SDS011;51709;54.912;8.316;2023-07-13T03:22:41;7.15;;;2.50;;
65130;SDS011;51709;54.912;8.316;2023-07-13T03:28:03;11.88;;;2.13;;
65130;SDS011;51709;54.912;8.316;2023-07-13T03:33:27;10.60;;;2.77;;
65130;SDS011;51709;54.912;8.316;2023-07-13T03:38:48;11.95;;;3.17;;
65130;SDS011;51709;54.912;8.316;2023-07-13T03:44:12;10.27;;;2.58;;
65130;SDS011;51709;54.912;8.316;2023-07-13T03:49:33;9.65;;;2.95;;
65130;SDS011;51709;54.912;8.316;2023-07-13T03:54:53;8.07;;;2.28;;
65130;SDS011;51709;54.912;8.316;2023-07-13T04:00:15;20.67;;;2.70;;
65130;SDS011;51709;54.912;8.316;2023-07-13T04:05:36;11.70;;;2.65;;
65130;SDS011;51709;54.912;8.316;2023-07-13T04:10:57;11.98;;;3.33;;
65130;SDS011;51709;54.912;8.316;2023-07-13T04:16:18;12.43;;;2.92;;
65130;SDS011;51709;54.912;8.316;2023-07-13T04:21:40;5.90;;;2.20;;
65130;SDS011;51709;54.912;8.316;2023-07-13T04:27:00;12.23;;;3.05;;
65130;SDS011;51709;54.912;8.316;2023-07-13T04:32:23;16.60;;;2.95;;
65130;SDS011;51709;54.912;8.316;2023-07-13T04:37:43;11.13;;;3.10;;
65130;SDS011;51709;54.912;8.316;2023-07-13T04:43:04;10.13;;;2.58;;
65130;SDS011;51709;54.912;8.316;2023-07-13T04:48:25;11.57;;;2.53;;
65130;SDS011;51709;54.912;8.316;2023-07-13T04:53:45;18.92;;;3.22;;
65130;SDS011;51709;54.912;8.316;2023-07-13T04:59:06;4.75;;;2.20;;
65130;SDS011;51709;54.912;8.316;2023-07-13T05:11:58;4.70;;;2.33;;
65130;SDS011;51709;54.912;8.316;2023-07-13T05:17:19;9.00;;;2.17;;
65130;SDS011;51709;54.912;8.316;2023-07-13T05:22:40;11.63;;;2.45;;
65130;SDS011;51709;54.912;8.316;2023-07-13T05:28:01;9.15;;;2.55;;
65130;SDS011;51709;54.912;8.316;2023-07-13T05:33:21;9.40;;;2.40;;
65130;SDS011;51709;54.912;8.316;2023-07-13T05:38:43;7.93;;;2.30;;
65130;SDS011;51709;54.912;8.316;2023-07-13T05:44:03;7.25;;;2.42;;
65130;SDS011;51709;54.912;8.316;2023-07-13T05:49:24;7.03;;;2.33;;
65130;SDS011;51709;54.912;8.316;2023-07-13T05:54:44;5.47;;;2.15;;
65130;SDS011;51709;54.912;8.316;2023-07-13T06:00:05;9.15;;;2.70;;
65130;SDS011;51709;54.912;8.316;2023-07-13T06:05:31;3.67;;;1.73;;
65130;SDS011;51709;54.912;8.316;2023-07-13T06:10:54;6.95;;;2.45;;
65130;SDS011;51709;54.912;8.316;2023-07-13T06:16:15;10.50;;;2.30;;
65130;SDS011;51709;54.912;8.316;2023-07-13T06:21:37;7.07;;;2.15;;
65130;SDS011;51709;54.912;8.316;2023-07-13T06:26:57;10.30;;;2.53;;
65130;SDS011;51709;54.912;8.316;2023-07-13T06:32:18;9.82;;;2.40;;
65130;SDS011;51709;54.912;8.316;2023-07-13T06:37:39;14.00;;;2.40;;
65130;SDS011;51709;54.912;8.316;2023-07-13T06:42:59;11.30;;;2.65;;
65130;SDS011;51709;54.912;8.316;2023-07-13T06:48:20;11.05;;;2.00;;
65130;SDS011;51709;54.912;8.316;2023-07-13T06:53:40;11.90;;;2.22;;
65130;SDS011;51709;54.912;8.316;2023-07-13T06:59:02;11.43;;;2.78;;
65130;SDS011;51709;54.912;8.316;2023-07-13T07:04:23;6.28;;;1.83;;
65130;SDS011;51709;54.912;8.316;2023-07-13T07:09:43;10.65;;;2.65;;
65130;SDS011;51709;54.912;8.316;2023-07-13T07:15:04;15.02;;;2.80;;
65130;SDS011;51709;54.912;8.316;2023-07-13T07:20:25;7.95;;;2.15;;
65130;SDS011;51709;54.912;8.316;2023-07-13T07:25:47;13.30;;;2.58;;
65130;SDS011;51709;54.912;8.316;2023-07-13T07:31:07;7.00;;;3.17;;
65130;SDS011;51709;54.912;8.316;2023-07-13T07:36:31;8.25;;;1.88;;
65130;SDS011;51709;54.912;8.316;2023-07-13T07:41:55;2.73;;;1.93;;
65130;SDS011;51709;54.912;8.316;2023-07-13T07:47:17;12.32;;;2.10;;
65130;SDS011;51709;54.912;8.316;2023-07-13T07:52:37;10.25;;;2.30;;
65130;SDS011;51709;54.912;8.316;2023-07-13T07:57:58;25.75;;;2.55;;
65130;SDS011;51709;54.912;8.316;2023-07-13T08:03:21;13.57;;;2.53;;
65130;SDS011;51709;54.912;8.316;2023-07-13T08:14:06;14.80;;;2.35;;
65130;SDS011;51709;54.912;8.316;2023-07-13T08:19:26;10.82;;;2.42;;
65130;SDS011;51709;54.912;8.316;2023-07-13T08:24:47;5.07;;;1.70;;
65130;SDS011;51709;54.912;8.316;2023-07-13T08:30:15;10.10;;;1.58;;
65130;SDS011;51709;54.912;8.316;2023-07-13T08:35:36;3.25;;;1.25;;
65130;SDS011;51709;54.912;8.316;2023-07-13T08:40:56;11.73;;;2.42;;
65130;SDS011;51709;54.912;8.316;2023-07-13T08:46:19;4.70;;;1.80;;
65130;SDS011;51709;54.912;8.316;2023-07-13T08:51:53;6.97;;;2.40;;
65130;SDS011;51709;54.912;8.316;2023-07-13T08:57:21;7.07;;;2.22;;
65130;SDS011;51709;54.912;8.316;2023-07-13T09:02:58;6.13;;;1.83;;
65130;SDS011;51709;54.912;8.316;2023-07-13T09:19:18;8.23;;;2.95;;
65130;SDS011;51709;54.912;8.316;2023-07-13T09:24:49;4.47;;;1.60;;
65130;SDS011;51709;54.912;8.316;2023-07-13T09:35:35;5.78;;;2.10;;
65130;SDS011;51709;54.912;8.316;2023-07-13T09:41:00;7.10;;;2.47;;
65130;SDS011;51709;54.912;8.316;2023-07-13T09:46:34;7.15;;;3.05;;
65130;SDS011;51709;54.912;8.316;2023-07-13T09:51:58;12.05;;;2.65;;
65130;SDS011;51709;54.912;8.316;2023-07-13T09:57:23;6.10;;;2.22;;
65130;SDS011;51709;54.912;8.316;2023-07-13T10:03:05;7.13;;;3.13;;
65130;SDS011;51709;54.912;8.316;2023-07-13T10:08:47;5.03;;;2.42;;
65130;SDS011;51709;54.912;8.316;2023-07-13T10:19:34;8.73;;;2.30;;
65130;SDS011;51709;54.912;8.316;2023-07-13T10:24:55;9.65;;;4.15;;
65130;SDS011;51709;54.912;8.316;2023-07-13T10:30:21;9.27;;;3.63;;
65130;SDS011;51709;54.912;8.316;2023-07-13T10:35:49;5.57;;;3.40;;
65130;SDS011;51709;54.912;8.316;2023-07-13T10:41:15;2.47;;;2.08;;
65130;SDS011;51709;54.912;8.316;2023-07-13T10:46:39;13.10;;;3.83;;
65130;SDS011;51709;54.912;8.316;2023-07-13T10:52:00;8.75;;;3.42;;
65130;SDS011;51709;54.912;8.316;2023-07-13T10:57:21;10.55;;;2.38;;
65130;SDS011;51709;54.912;8.316;2023-07-13T11:02:42;5.13;;;1.70;;
65130;SDS011;51709;54.912;8.316;2023-07-13T11:25:20;9.73;;;1.77;;
65130;SDS011;51709;54.912;8.316;2023-07-13T11:41:49;12.43;;;3.53;;
65130;SDS011;51709;54.912;8.316;2023-07-13T11:47:19;5.53;;;2.22;;
65130;SDS011;51709;54.912;8.316;2023-07-13T11:52:42;8.88;;;2.22;;
65130;SDS011;51709;54.912;8.316;2023-07-13T11:58:03;9.95;;;1.85;;
65130;SDS011;51709;54.912;8.316;2023-07-13T12:03:24;1.42;;;0.98;;
65130;SDS011;51709;54.912;8.316;2023-07-13T12:08:46;6.28;;;1.77;;
65130;SDS011;51709;54.912;8.316;2023-07-13T12:14:12;6.57;;;1.98;;
65130;SDS011;51709;54.912;8.316;2023-07-13T12:19:35;3.85;;;1.52;;
65130;SDS011;51709;54.912;8.316;2023-07-13T12:24:57;5.70;;;1.15;;
65130;SDS011;51709;54.912;8.316;2023-07-13T12:30:26;4.60;;;1.55;;
65130;SDS011;51709;54.912;8.316;2023-07-13T12:35:47;9.60;;;1.90;;
65130;SDS011;51709;54.912;8.316;2023-07-13T12:41:10;5.70;;;1.58;;
65130;SDS011;51709;54.912;8.316;2023-07-13T12:46:31;3.95;;;1.27;;
65130;SDS011;51709;54.912;8.316;2023-07-13T12:51:55;2.55;;;1.90;;
65130;SDS011;51709;54.912;8.316;2023-07-13T12:57:17;4.88;;;1.77;;
65130;SDS011;51709;54.912;8.316;2023-07-13T13:02:38;10.63;;;1.60;;
65130;SDS011;51709;54.912;8.316;2023-07-13T13:07:59;6.60;;;1.95;;
65130;SDS011;51709;54.912;8.316;2023-07-13T13:13:19;5.22;;;1.83;;
65130;SDS011;51709;54.912;8.316;2023-07-13T13:18:40;11.68;;;2.33;;
65130;SDS011;51709;54.912;8.316;2023-07-13T13:24:00;6.80;;;1.63;;
65130;SDS011;51709;54.912;8.316;2023-07-13T13:29:21;8.57;;;1.48;;
65130;SDS011;51709;54.912;8.316;2023-07-13T13:34:47;2.28;;;1.23;;
65130;SDS011;51709;54.912;8.316;2023-07-13T13:40:13;2.47;;;1.10;;
65130;SDS011;51709;54.912;8.316;2023-07-13T13:45:34;5.18;;;1.42;;
65130;SDS011;51709;54.912;8.316;2023-07-13T13:50:55;4.97;;;1.08;;
65130;SDS011;51709;54.912;8.316;2023-07-13T13:56:18;1.83;;;1.25;;
65130;SDS011;51709;54.912;8.316;2023-07-13T14:01:40;13.82;;;1.42;;
65130;SDS011;51709;54.912;8.316;2023-07-13T14:07:02;10.38;;;2.17;;
65130;SDS011;51709;54.912;8.316;2023-07-13T14:12:22;6.90;;;1.40;;
65130;SDS011;51709;54.912;8.316;2023-07-13T14:17:46;5.32;;;1.35;;
65130;SDS011;51709;54.912;8.316;2023-07-13T14:31:06;3.13;;;0.98;;
65130;SDS011;51709;54.912;8.316;2023-07-13T14:36:34;7.78;;;1.70;;
65130;SDS011;51709;54.912;8.316;2023-07-13T14:41:58;5.35;;;1.77;;
65130;SDS011;51709;54.912;8.316;2023-07-13T14:47:19;2.80;;;1.60;;
65130;SDS011;51709;54.912;8.316;2023-07-13T14:52:39;3.72;;;1.50;;
65130;SDS011;51709;54.912;8.316;2023-07-13T14:58:00;6.07;;;2.58;;
65130;SDS011;51709;54.912;8.316;2023-07-13T15:03:21;3.42;;;1.52;;
65130;SDS011;51709;54.912;8.316;2023-07-13T15:08:45;3.33;;;1.73;;
65130;SDS011;51709;54.912;8.316;2023-07-13T15:14:06;6.43;;;1.92;;
65130;SDS011;51709;54.912;8.316;2023-07-13T15:19:27;6.85;;;1.50;;
65130;SDS011;51709;54.912;8.316;2023-07-13T15:24:48;4.10;;;1.33;;
65130;SDS011;51709;54.912;8.316;2023-07-13T15:30:09;3.92;;;1.90;;
65130;SDS011;51709;54.912;8.316;2023-07-13T15:35:33;4.53;;;1.52;;
65130;SDS011;51709;54.912;8.316;2023-07-13T15:40:53;8.93;;;1.73;;
65130;SDS011;51709;54.912;8.316;2023-07-13T15:46:15;2.90;;;1.50;;
65130;SDS011;51709;54.912;8.316;2023-07-13T15:51:36;3.70;;;1.25;;
65130;SDS011;51709;54.912;8.316;2023-07-13T15:56:56;5.20;;;1.30;;
65130;SDS011;51709;54.912;8.316;2023-07-13T16:02:22;4.22;;;1.58;;
65130;SDS011;51709;54.912;8.316;2023-07-13T16:07:43;1.95;;;1.08;;
65130;SDS011;51709;54.912;8.316;2023-07-13T16:13:15;2.20;;;1.17;;
65130;SDS011;51709;54.912;8.316;2023-07-13T16:18:36;4.65;;;1.33;;
65130;SDS011;51709;54.912;8.316;2023-07-13T16:23:57;1.20;;;0.90;;
65130;SDS011;51709;54.912;8.316;2023-07-13T16:29:25;4.43;;;1.17;;
65130;SDS011;51709;54.912;8.316;2023-07-13T16:34:47;3.00;;;1.05;;
65130;SDS011;51709;54.912;8.316;2023-07-13T16:47:41;5.47;;;1.40;;
65130;SDS011;51709;54.912;8.316;2023-07-13T16:53:18;3.13;;;1.00;;
65130;SDS011;51709;54.912;8.316;2023-07-13T16:58:40;3.65;;;1.35;;
65130;SDS011;51709;54.912;8.316;2023-07-13T17:04:00;2.20;;;1.30;;
65130;SDS011;51709;54.912;8.316;2023-07-13T17:09:24;2.47;;;1.20;;
65130;SDS011;51709;54.912;8.316;2023-07-13T17:14:45;3.40;;;1.30;;
65130;SDS011;51709;54.912;8.316;2023-07-13T17:20:15;2.95;;;1.23;;
65130;SDS011;51709;54.912;8.316;2023-07-13T17:25:38;5.57;;;1.70;;
65130;SDS011;51709;54.912;8.316;2023-07-13T17:31:01;4.03;;;1.48;;
65130;SDS011;51709;54.912;8.316;2023-07-13T17:36:29;1.98;;;1.40;;
65130;SDS011;51709;54.912;8.316;2023-07-13T17:41:49;2.88;;;1.30;;
65130;SDS011;51709;54.912;8.316;2023-07-13T17:52:43;4.20;;;1.70;;
65130;SDS011;51709;54.912;8.316;2023-07-13T17:58:04;8.40;;;1.33;;
65130;SDS011;51709;54.912;8.316;2023-07-13T18:03:25;5.78;;;1.52;;
65130;SDS011;51709;54.912;8.316;2023-07-13T18:08:54;6.43;;;1.13;;
65130;SDS011;51709;54.912;8.316;2023-07-13T18:14:16;2.75;;;1.17;;
65130;SDS011;51709;54.912;8.316;2023-07-13T18:19:38;7.40;;;1.92;;
65130;SDS011;51709;54.912;8.316;2023-07-13T18:25:01;5.82;;;1.60;;
65130;SDS011;51709;54.912;8.316;2023-07-13T18:30:24;1.55;;;1.02;;
65130;SDS011;51709;54.912;8.316;2023-07-13T18:35:45;2.70;;;0.85;;
65130;SDS011;51709;54.912;8.316;2023-07-13T18:41:08;3.65;;;1.08;;
65130;SDS011;51709;54.912;8.316;2023-07-13T18:46:31;3.67;;;0.80;;
65130;SDS011;51709;54.912;8.316;2023-07-13T18:51:54;4.63;;;1.45;;
65130;SDS011;51709;54.912;8.316;2023-07-13T18:57:15;6.88;;;1.27;;
65130;SDS011;51709;54.912;8.316;2023-07-13T19:02:36;6.32;;;1.33;;
65130;SDS011;51709;54.912;8.316;2023-07-13T19:07:57;2.15;;;1.10;;
65130;SDS011;51709;54.912;8.316;2023-07-13T19:13:27;6.93;;;1.40;;
65130;SDS011;51709;54.912;8.316;2023-07-13T19:18:51;4.90;;;1.70;;
65130;SDS011;51709;54.912;8.316;2023-07-13T19:24:12;10.35;;;1.85;;
65130;SDS011;51709;54.912;8.316;2023-07-13T19:29:35;2.47;;;1.10;;
65130;SDS011;51709;54.912;8.316;2023-07-13T19:34:58;5.50;;;2.10;;
65130;SDS011;51709;54.912;8.316;2023-07-13T19:40:19;3.80;;;1.48;;
65130;SDS011;51709;54.912;8.316;2023-07-13T19:45:42;4.60;;;1.23;;
65130;SDS011;51709;54.912;8.316;2023-07-13T19:51:02;4.55;;;2.13;;
65130;SDS011;51709;54.912;8.316;2023-07-13T19:56:24;3.95;;;1.55;;
65130;SDS011;51709;54.912;8.316;2023-07-13T20:01:45;4.43;;;1.88;;
65130;SDS011;51709;54.912;8.316;2023-07-13T20:07:12;5.18;;;1.83;;
65130;SDS011;51709;54.912;8.316;2023-07-13T20:12:35;7.68;;;1.75;;
65130;SDS011;51709;54.912;8.316;2023-07-13T20:17:57;3.05;;;1.40;;
65130;SDS011;51709;54.912;8.316;2023-07-13T20:23:20;8.90;;;2.25;;
65130;SDS011;51709;54.912;8.316;2023-07-13T20:28:43;1.50;;;1.30;;
65130;SDS011;51709;54.912;8.316;2023-07-13T20:34:04;8.95;;;2.22;;
65130;SDS011;51709;54.912;8.316;2023-07-13T20:39:25;2.40;;;1.85;;
65130;SDS011;51709;54.912;8.316;2023-07-13T20:44:46;3.25;;;1.90;;
65130;SDS011;51709;54.912;8.316;2023-07-13T20:50:15;4.18;;;1.80;;
65130;SDS011;51709;54.912;8.316;2023-07-13T20:55:44;4.60;;;1.40;;
65130;SDS011;51709;54.912;8.316;2023-07-13T21:01:09;7.97;;;1.63;;
65130;SDS011;51709;54.912;8.316;2023-07-13T21:06:34;6.95;;;3.15;;
65130;SDS011;51709;54.912;8.316;2023-07-13T21:11:56;3.22;;;1.85;;
65130;SDS011;51709;54.912;8.316;2023-07-13T21:17:20;4.00;;;1.52;;
65130;SDS011;51709;54.912;8.316;2023-07-13T21:22:40;5.82;;;1.48;;
65130;SDS011;51709;54.912;8.316;2023-07-13T21:28:01;6.60;;;2.03;;
65130;SDS011;51709;54.912;8.316;2023-07-13T21:33:21;5.13;;;1.85;;
65130;SDS011;51709;54.912;8.316;2023-07-13T21:38:42;5.55;;;1.30;;
65130;SDS011;51709;54.912;8.316;2023-07-13T21:44:21;9.43;;;1.73;;
65130;SDS011;51709;54.912;8.316;2023-07-13T21:49:45;9.70;;;1.75;;
65130;SDS011;51709;54.912;8.316;2023-07-13T21:55:16;7.22;;;2.58;;
65130;SDS011;51709;54.912;8.316;2023-07-13T22:00:43;3.13;;;1.40;;
65130;SDS011;51709;54.912;8.316;2023-07-13T22:06:04;4.00;;;1.67;;
65130;SDS011;51709;54.912;8.316;2023-07-13T22:11:26;16.80;;;1.83;;
65130;SDS011;51709;54.912;8.316;2023-07-13T22:16:47;4.63;;;1.40;;
65130;SDS011;51709;54.912;8.316;2023-07-13T22:22:08;2.92;;;1.45;;
65130;SDS011;51709;54.912;8.316;2023-07-13T22:27:29;4.55;;;1.60;;
65130;SDS011;51709;54.912;8.316;2023-07-13T22:32:50;4.03;;;1.40;;
65130;SDS011;51709;54.912;8.316;2023-07-13T22:38:17;7.95;;;1.35;;
65130;SDS011;51709;54.912;8.316;2023-07-13T22:43:43;3.88;;;1.45;;
65130;SDS011;51709;54.912;8.316;2023-07-13T22:49:20;10.05;;;1.35;;
65130;SDS011;51709;54.912;8.316;2023-07-13T22:54:45;4.32;;;1.33;;
65130;SDS011;51709;54.912;8.316;2023-07-13T23:00:15;2.47;;;1.40;;
65130;SDS011;51709;54.912;8.316;2023-07-13T23:05:37;2.15;;;0.88;;
65130;SDS011;51709;54.912;8.316;2023-07-13T23:10:58;1.50;;;1.23;;
65130;SDS011;51709;54.912;8.316;2023-07-13T23:16:22;5.88;;;1.58;;
65130;SDS011;51709;54.912;8.316;2023-07-13T23:21:46;5.15;;;1.17;;
65130;SDS011;51709;54.912;8.316;2023-07-13T23:27:11;6.20;;;1.27;;
65130;SDS011;51709;54.912;8.316;2023-07-13T23:32:31;5.35;;;1.60;;
65130;SDS011;51709;54.912;8.316;2023-07-13T23:37:52;2.00;;;1.35;;
65130;SDS011;51709;54.912;8.316;2023-07-13T23:43:13;3.15;;;1.80;;
65130;SDS011;51709;54.912;8.316;2023-07-13T23:48:34;5.15;;;2.17;;
65130;SDS011;51709;54.912;8.316;2023-07-13T23:53:54;5.05;;;1.80;;
65130;SDS011;51709;54.912;8.316;2023-07-13T23:59:16;5.57;;;1.40;;
